Time;durP1;ratioP1;P1;durP2;ratioP2;P2;SDS_P1;SDS_P2;PMS_P1;PMS_P2;Temp;Humidity;BMP_temperature;BMP_pressure;BME280_temperature;BME280_humidity;BME280_pressure;Samples;Min_cycle;Max_cycle;Signal;HPM_P1;HPM_P2
2022/05/12 05:03:04;;;;;;;3.90;1.35;;;19.00;80.90;;;;;;6158136;23;20021;-82
2022/05/12 05:05:31;;;;;;;3.47;1.52;;;19.10;80.70;;;;;;6191892;23;20001;-82
2022/05/12 05:07:56;;;;;;;5.00;1.75;;;19.20;80.70;;;;;;6166931;23;20240;-79
2022/05/12 05:10:24;;;;;;;3.17;1.33;;;19.20;80.40;;;;;;6193005;23;20021;-79
2022/05/12 05:12:50;;;;;;;4.13;1.30;;;19.40;80.00;;;;;;6167416;23;20005;-79
2022/05/12 05:15:24;;;;;;;4.28;1.30;;;19.60;79.60;;;;;;6166874;23;19993;-81
2022/05/12 05:18:18;;;;;;;4.72;1.33;;;19.80;78.90;;;;;;6171033;23;20087;-79
2022/05/12 05:20:53;;;;;;;3.35;1.30;;;19.80;79.30;;;;;;6193300;23;20020;-81
2022/05/12 05:23:45;;;;;;;4.00;1.33;;;19.80;79.20;;;;;;6167063;23;20286;-81
2022/05/12 05:26:11;;;;;;;3.78;1.33;;;19.80;79.00;;;;;;6194775;23;19997;-79
2022/05/12 05:28:37;;;;;;;3.80;1.40;;;19.80;79.10;;;;;;6195328;23;20056;-81
2022/05/12 05:31:07;;;;;;;3.83;1.40;;;19.80;79.30;;;;;;6168366;23;20008;-82
2022/05/12 05:33:32;;;;;;;3.55;1.10;;;19.80;79.50;;;;;;6194607;23;20020;-78
2022/05/12 05:35:58;;;;;;;7.28;1.35;;;19.80;79.60;;;;;;6168808;23;19989;-78
2022/05/12 05:38:30;;;;;;;7.03;1.52;;;19.80;79.50;;;;;;6194852;23;20009;-81
2022/05/12 05:40:55;;;;;;;7.82;2.30;;;19.80;80.00;;;;;;6194469;23;20283;-80
2022/05/12 05:43:26;;;;;;;2.33;1.17;;;19.70;80.10;;;;;;6194614;23;20001;-81
2022/05/12 05:45:52;;;;;;;4.45;1.33;;;19.70;79.90;;;;;;6193711;23;20025;-80
2022/05/12 05:48:31;;;;;;;4.28;1.45;;;19.80;80.10;;;;;;6194556;23;20048;-79
2022/05/12 05:53:47;;;;;;;3.10;1.35;;;19.80;79.80;;;;;;6169021;23;20016;-79
2022/05/12 05:56:15;;;;;;;3.30;1.33;;;20.00;79.60;;;;;;6162220;23;19997;-80
2022/05/12 05:58:43;;;;;;;3.25;1.48;;;20.10;79.10;;;;;;6193786;23;20206;-79
2022/05/12 06:01:12;;;;;;;6.60;1.60;;;20.30;78.80;;;;;;6166075;23;20017;-80
2022/05/12 06:03:39;;;;;;;2.90;1.30;;;20.30;79.00;;;;;;6193473;23;20040;-81
2022/05/12 06:06:43;;;;;;;5.00;1.65;;;20.30;79.60;;;;;;6193155;23;20005;-80
2022/05/12 06:09:19;;;;;;;2.63;1.58;;;20.20;79.00;;;;;;6142183;23;20035;-80
2022/05/12 06:12:19;;;;;;;3.97;1.50;;;20.20;79.20;;;;;;6160237;23;20099;-81
2022/05/12 06:14:48;;;;;;;7.00;1.30;;;20.20;79.50;;;;;;6193480;23;20336;-80
2022/05/12 06:18:16;;;;;;;2.95;1.20;;;20.20;79.40;;;;;;6147728;23;20055;-79
2022/05/12 06:24:29;;;;;;;3.33;1.20;;;20.60;78.70;;;;;;6193509;23;20250;-79
2022/05/12 06:27:24;;;;;;;3.33;1.30;;;20.70;78.20;;;;;;6170107;23;20051;-79
2022/05/12 06:30:18;;;;;;;3.13;1.15;;;21.00;77.80;;;;;;6167141;23;20005;-80
2022/05/12 06:32:45;;;;;;;3.40;1.20;;;21.10;77.40;;;;;;6191689;23;20013;-79
2022/05/12 06:35:13;;;;;;;5.25;1.05;;;21.30;77.30;;;;;;6192585;23;20031;-77
2022/05/12 06:37:39;;;;;;;6.53;1.40;;;21.40;76.90;;;;;;6193306;23;19989;-77
2022/05/12 06:40:06;;;;;;;3.75;1.10;;;21.70;76.30;;;;;;6167250;23;20044;-78
2022/05/12 06:42:35;;;;;;;3.60;1.00;;;22.00;75.20;;;;;;6167346;23;19990;-78
2022/05/12 06:45:02;;;;;;;3.83;1.05;;;22.30;74.30;;;;;;6167296;23;20021;-78
2022/05/12 06:47:28;;;;;;;4.28;1.10;;;22.50;74.90;;;;;;6166405;23;20009;-79
2022/05/12 06:50:02;;;;;;;2.92;0.95;;;22.60;74.10;;;;;;6167224;23;20287;-79
2022/05/12 06:52:29;;;;;;;4.88;1.17;;;22.70;73.50;;;;;;6192845;23;20082;-78
2022/05/12 06:54:55;;;;;;;4.35;1.10;;;22.80;73.50;;;;;;6193290;23;20012;-77
2022/05/12 06:57:24;;;;;;;3.20;1.08;;;22.50;73.80;;;;;;6166897;23;20163;-79
2022/05/12 06:59:50;;;;;;;;;;;22.40;74.80;;;;;;6167691;23;20214;-78
2022/05/12 07:05:30;;;;;;;4.03;0.98;;;22.20;75.60;;;;;;6164374;23;20553;-78
2022/05/12 07:07:59;;;;;;;5.68;1.30;;;22.20;75.20;;;;;;6193029;23;19997;-80
2022/05/12 07:10:29;;;;;;;5.38;1.30;;;22.10;74.80;;;;;;6192265;23;20009;-81
2022/05/12 07:12:55;;;;;;;4.05;1.00;;;22.20;74.70;;;;;;6166866;23;20008;-80
2022/05/12 07:15:25;;;;;;;2.80;1.10;;;22.20;74.90;;;;;;6191310;23;20001;-79
2022/05/12 07:17:51;;;;;;;4.40;1.17;;;22.50;74.40;;;;;;6166436;23;20005;-80
2022/05/12 07:29:42;;;;;;;6.85;1.10;;;23.10;73.40;;;;;;6193073;23;20036;-79
2022/05/12 07:32:10;;;;;;;3.50;1.00;;;23.20;72.60;;;;;;6191055;23;20005;-79
2022/05/12 07:35:11;;;;;;;2.60;0.80;;;23.00;72.90;;;;;;6196091;23;20001;-79
2022/05/12 07:37:49;;;;;;;2.80;0.93;;;22.90;73.40;;;;;;6143785;23;20309;-79
2022/05/12 07:40:17;;;;;;;3.33;1.05;;;22.90;73.70;;;;;;6164897;23;20028;-78
2022/05/12 07:46:19;;;;;;;3.47;1.20;;;22.80;74.00;;;;;;6190552;23;20081;-78
2022/05/12 07:48:49;;;;;;;3.78;1.15;;;22.80;74.60;;;;;;6192364;23;20093;-78
2022/05/12 07:51:15;;;;;;;3.28;1.02;;;23.10;73.80;;;;;;6165987;23;20063;-78
2022/05/12 07:53:41;;;;;;;1.50;0.80;;;23.10;72.80;;;;;;6166469;23;20005;-78
2022/05/12 07:56:08;;;;;;;2.38;0.90;;;23.10;73.10;;;;;;6192450;23;20337;-78
2022/05/12 07:58:34;;;;;;;4.90;0.80;;;23.20;73.00;;;;;;6192378;23;20049;-78
2022/05/12 08:01:00;;;;;;;3.45;1.33;;;23.20;73.00;;;;;;6165554;23;20164;-78
2022/05/12 08:03:26;;;;;;;2.92;1.15;;;23.20;72.80;;;;;;6188731;23;20013;-78
2022/05/12 08:05:53;;;;;;;3.30;1.00;;;23.20;72.80;;;;;;6222623;23;20061;-79
2022/05/12 08:08:19;;;;;;;3.03;0.90;;;23.20;72.90;;;;;;6221276;23;20190;-77
2022/05/12 08:10:45;;;;;;;2.28;0.90;;;23.50;72.00;;;;;;6196017;23;20017;-78
2022/05/12 08:13:17;;;;;;;3.38;1.10;;;23.50;72.40;;;;;;6195085;23;20007;-77
2022/05/12 08:15:48;;;;;;;2.90;1.00;;;23.60;72.00;;;;;;6195384;23;20009;-77
2022/05/12 08:18:17;;;;;;;3.55;1.20;;;23.50;72.70;;;;;;6221770;23;20000;-76
2022/05/12 08:20:53;;;;;;;6.38;1.13;;;23.50;72.40;;;;;;6171304;23;20080;-78
2022/05/12 08:23:23;;;;;;;4.20;1.15;;;23.60;72.30;;;;;;6222431;23;20179;-78
2022/05/12 08:25:49;;;;;;;3.75;1.02;;;23.70;72.10;;;;;;6195194;23;20042;-77
2022/05/12 08:28:17;;;;;;;3.53;1.20;;;23.90;71.40;;;;;;6221712;23;20056;-78
2022/05/12 08:33:51;;;;;;;2.95;1.33;;;24.40;70.40;;;;;;6222120;23;20035;-77
2022/05/12 08:36:18;;;;;;;5.30;1.63;;;24.10;70.50;;;;;;6221700;23;19992;-78
2022/05/12 08:39:04;;;;;;;2.75;1.20;;;23.80;71.20;;;;;;6101045;23;20010;-78
2022/05/12 08:41:58;;;;;;;3.00;1.33;;;23.50;72.80;;;;;;6100570;23;20006;-78
2022/05/12 08:44:31;;;;;;;3.13;1.50;;;23.30;72.80;;;;;;6100396;23;20057;-78
2022/05/12 08:54:03;;;;;;;2.35;1.10;;;23.30;72.60;;;;;;6215121;22;20075;-78
2022/05/12 08:56:35;;;;;;;2.38;1.30;;;23.20;73.60;;;;;;6221265;23;20004;-78
2022/05/12 08:59:02;;;;;;;5.18;1.65;;;23.30;73.00;;;;;;6195015;23;20019;-78
2022/05/12 09:02:03;;;;;;;3.72;1.25;;;23.70;72.40;;;;;;6220218;23;20550;-78
2022/05/12 09:04:48;;;;;;;2.50;1.17;;;23.90;71.30;;;;;;6221291;23;20036;-77
2022/05/12 09:07:36;;;;;;;3.83;1.30;;;24.20;70.50;;;;;;6193478;23;20009;-77
2022/05/12 09:10:39;;;;;;;5.55;1.35;;;24.00;70.90;;;;;;6221588;23;20015;-77
2022/05/12 09:13:40;;;;;;;4.05;1.52;;;23.80;71.00;;;;;;6222081;23;20001;-77
2022/05/12 09:16:52;;;;;;;6.50;1.50;;;23.70;71.60;;;;;;6119629;23;20013;-78
2022/05/12 09:19:19;;;;;;;2.85;1.27;;;23.80;72.20;;;;;;6128593;23;20033;-77
2022/05/12 09:21:46;;;;;;;2.78;1.50;;;23.90;71.00;;;;;;6129943;23;20124;-77
2022/05/12 09:24:12;;;;;;;3.42;1.60;;;23.80;71.70;;;;;;6129175;23;19998;-76
2022/05/12 09:26:51;;;;;;;5.88;1.90;;;24.00;70.70;;;;;;6105370;23;20346;-78
2022/05/12 09:29:29;;;;;;;5.40;1.95;;;24.30;70.70;;;;;;6129171;23;20215;-76
2022/05/12 09:32:03;;;;;;;3.78;1.95;;;24.50;69.50;;;;;;6128980;23;20247;-78
2022/05/12 09:34:44;;;;;;;5.50;1.77;;;24.80;68.60;;;;;;6129274;23;20065;-77
2022/05/12 09:37:13;;;;;;;4.20;1.70;;;24.70;68.70;;;;;;6125968;23;20118;-76
2022/05/12 09:39:53;;;;;;;6.15;2.58;;;24.40;69.60;;;;;;6105022;23;20018;-77
2022/05/12 09:42:28;;;;;;;5.28;2.00;;;24.30;69.50;;;;;;6104373;23;20076;-77
2022/05/12 09:45:06;;;;;;;5.57;2.10;;;24.20;69.70;;;;;;6129595;23;20006;-77
2022/05/12 09:47:33;;;;;;;4.28;2.30;;;24.40;70.10;;;;;;6103041;23;20045;-77
2022/05/12 09:50:20;;;;;;;3.70;2.03;;;24.90;69.00;;;;;;6129458;23;19998;-77
2022/05/12 09:53:08;;;;;;;3.78;1.90;;;25.20;67.60;;;;;;6106299;23;20279;-77
2022/05/12 09:55:39;;;;;;;7.82;2.10;;;25.40;67.70;;;;;;6221597;23;20039;-77
2022/05/12 09:58:16;;;;;;;4.43;2.00;;;25.70;67.20;;;;;;6195979;23;20011;-77
2022/05/12 10:01:12;;;;;;;3.72;1.80;;;25.90;67.30;;;;;;6229199;23;20009;-78
2022/05/12 10:09:27;;;;;;;4.55;2.00;;;25.50;67.60;;;;;;6220843;23;20004;-77
2022/05/12 10:12:11;;;;;;;2.80;1.55;;;25.30;68.10;;;;;;6196556;23;19996;-78
2022/05/12 10:15:08;;;;;;;3.67;1.52;;;25.10;68.60;;;;;;6223548;23;20244;-78
2022/05/12 10:17:44;;;;;;;4.47;1.70;;;24.90;68.80;;;;;;6171051;23;20008;-79
2022/05/12 10:20:23;;;;;;;3.70;1.55;;;25.00;68.80;;;;;;6195565;23;20011;-79
2022/05/12 10:23:17;;;;;;;2.72;1.55;;;24.90;69.10;;;;;;6196540;23;20004;-78
2022/05/12 10:26:06;;;;;;;3.58;1.92;;;25.00;68.80;;;;;;6196936;23;20305;-79
2022/05/12 10:28:52;;;;;;;5.88;1.70;;;25.00;68.60;;;;;;6196235;23;20100;-78
2022/05/12 10:31:28;;;;;;;4.20;1.70;;;24.90;68.60;;;;;;6222034;23;20059;-79
2022/05/12 10:34:11;;;;;;;4.20;1.83;;;24.60;69.80;;;;;;6196765;23;20059;-78
2022/05/12 10:37:04;;;;;;;3.55;1.98;;;24.80;70.00;;;;;;6222667;23;20211;-79
2022/05/12 10:40:23;;;;;;;4.65;1.92;;;25.20;68.70;;;;;;6222442;23;20293;-79
2022/05/12 10:43:07;;;;;;;6.18;1.98;;;25.70;67.20;;;;;;6222919;23;20028;-79
2022/05/12 10:45:49;;;;;;;3.70;1.95;;;25.90;66.50;;;;;;6221999;23;20079;-78
2022/05/12 10:48:15;;;;;;;3.40;1.58;;;26.40;65.80;;;;;;6222578;23;20044;-81
2022/05/12 10:50:58;;;;;;;7.47;2.40;;;26.60;65.40;;;;;;6168851;23;20016;-78
2022/05/12 10:53:54;;;;;;;5.45;2.00;;;26.60;65.70;;;;;;6195813;23;20004;-78
2022/05/12 10:56:39;;;;;;;4.15;1.90;;;26.90;65.80;;;;;;6221998;23;20004;-78
2022/05/12 10:59:40;;;;;;;3.58;1.60;;;27.20;64.90;;;;;;6196236;23;20365;-77
2022/05/12 11:02:37;;;;;;;3.20;1.90;;;27.60;63.50;;;;;;6194151;23;20071;-77
2022/05/12 11:05:21;;;;;;;4.38;2.22;;;27.90;63.30;;;;;;6222614;23;20013;-79
2022/05/12 11:08:14;;;;;;;6.88;2.38;;;28.00;63.10;;;;;;6170822;23;20011;-79
2022/05/12 11:10:54;;;;;;;3.13;1.80;;;28.20;62.20;;;;;;6221890;23;20011;-80
2022/05/12 11:13:34;;;;;;;4.63;2.20;;;28.10;62.20;;;;;;6221784;23;20043;-79
2022/05/12 11:16:30;;;;;;;3.97;1.80;;;28.10;61.90;;;;;;6165365;23;20081;-79
2022/05/12 11:19:18;;;;;;;3.08;1.70;;;28.10;62.00;;;;;;6146971;23;20260;-80
2022/05/12 11:22:12;;;;;;;4.10;1.80;;;28.10;62.30;;;;;;6195586;23;19997;-80
2022/05/12 11:25:23;;;;;;;4.53;2.17;;;28.30;61.80;;;;;;6222716;23;20020;-79
2022/05/12 11:31:13;;;;;;;6.25;2.38;;;28.60;61.50;;;;;;6174636;23;20016;-79
2022/05/12 11:33:43;;;;;;;6.28;2.03;;;28.50;61.70;;;;;;6221423;23;20076;-80
2022/05/12 11:36:12;;;;;;;6.35;2.40;;;28.30;61.20;;;;;;6221120;23;20009;-80
2022/05/12 11:38:39;;;;;;;3.70;2.10;;;28.50;61.90;;;;;;6221982;23;20066;-79
2022/05/12 11:41:27;;;;;;;4.03;2.22;;;28.50;60.90;;;;;;6221995;23;20059;-80
2022/05/12 11:44:26;;;;;;;5.28;2.10;;;28.60;61.30;;;;;;6147577;23;20020;-78
2022/05/12 11:47:43;;;;;;;5.65;2.05;;;29.30;60.30;;;;;;6193663;23;20008;-77
2022/05/12 11:50:32;;;;;;;2.63;1.65;;;29.60;60.20;;;;;;6045761;23;20011;-80
2022/05/12 11:53:22;;;;;;;5.35;2.20;;;31.30;58.00;;;;;;6071355;23;20051;-79
2022/05/12 12:06:04;;;;;;;4.38;1.77;;;35.40;52.90;;;;;;6189037;23;20307;-78
2022/05/12 12:08:32;;;;;;;4.60;1.95;;;35.70;52.40;;;;;;6190904;23;20259;-78
2022/05/12 12:11:42;;;;;;;4.68;1.77;;;36.60;51.40;;;;;;6191362;23;20001;-79
2022/05/12 12:14:09;;;;;;;3.92;1.55;;;36.50;51.10;;;;;;6194242;23;20247;-80
2022/05/12 12:16:57;;;;;;;4.38;1.65;;;36.90;51.10;;;;;;6165279;23;20020;-79
2022/05/12 12:20:03;;;;;;;4.10;1.60;;;36.10;51.40;;;;;;6165324;23;19997;-77
2022/05/12 12:22:37;;;;;;;2.53;1.52;;;36.10;51.40;;;;;;6099819;23;20196;-78
2022/05/12 12:25:09;;;;;;;5.07;1.63;;;36.80;51.40;;;;;;6158179;23;20001;-78
2022/05/12 12:27:58;;;;;;;3.95;1.70;;;37.80;50.50;;;;;;6165349;23;20004;-77
2022/05/12 12:30:36;;;;;;;4.90;1.70;;;37.30;50.60;;;;;;6145292;23;20039;-79
2022/05/12 12:33:39;;;;;;;5.00;1.70;;;38.00;50.10;;;;;;6191081;23;20008;-79
2022/05/12 12:36:15;;;;;;;7.85;1.58;;;38.70;49.20;;;;;;6191301;23;20001;-78
2022/05/12 12:38:47;;;;;;;2.78;1.30;;;39.20;49.10;;;;;;6191666;23;20011;-78
2022/05/12 12:41:19;;;;;;;6.38;1.30;;;39.30;48.70;;;;;;6190546;23;20160;-77
2022/05/12 12:43:53;;;;;;;9.00;1.65;;;39.50;49.10;;;;;;6191412;23;20005;-78
2022/05/12 12:46:26;;;;;;;7.93;1.92;;;39.50;49.00;;;;;;6163902;23;20202;-78
2022/05/12 12:49:07;;;;;;;7.57;1.98;;;38.80;49.00;;;;;;6191712;23;20043;-78
2022/05/12 12:51:38;;;;;;;4.30;1.55;;;38.40;49.40;;;;;;6191112;23;20001;-79
2022/05/12 12:57:08;;;;;;;4.60;1.50;;;36.90;50.20;;;;;;6165033;23;20005;-79
2022/05/12 13:02:56;;;;;;;2.47;1.33;;;35.50;51.70;;;;;;6190066;23;20027;-78
2022/05/12 13:05:24;;;;;;;5.18;1.50;;;35.10;52.80;;;;;;6169264;23;20074;-77
2022/05/12 13:08:20;;;;;;;2.65;1.40;;;34.50;52.80;;;;;;6221004;23;20022;-79
2022/05/12 13:10:49;;;;;;;6.72;1.38;;;34.40;53.30;;;;;;6168468;23;20029;-79
2022/05/12 13:13:21;;;;;;;3.55;1.60;;;33.90;53.80;;;;;;6220389;23;20007;-78
2022/05/12 13:15:53;;;;;;;4.55;1.60;;;33.00;55.00;;;;;;6169463;23;20036;-78
2022/05/12 13:18:24;;;;;;;4.05;1.80;;;32.80;55.30;;;;;;6220411;23;20020;-77
2022/05/12 13:20:52;;;;;;;5.03;1.55;;;33.30;54.70;;;;;;6194646;23;20011;-78
2022/05/12 13:23:58;;;;;;;5.18;1.33;;;33.70;55.00;;;;;;6194715;23;20355;-79
2022/05/12 13:26:24;;;;;;;2.67;1.67;;;34.50;54.10;;;;;;6204464;23;20012;-78
2022/05/12 13:28:50;;;;;;;4.38;1.60;;;34.70;53.20;;;;;;6221181;23;20301;-79
2022/05/12 13:31:24;;;;;;;4.38;1.38;;;34.00;53.90;;;;;;6219881;23;20015;-79
2022/05/12 13:34:27;;;;;;;4.47;1.77;;;33.20;54.90;;;;;;6221007;23;20001;-77
2022/05/12 13:36:58;;;;;;;4.35;1.77;;;33.40;55.40;;;;;;6052689;23;20383;-78
2022/05/12 13:39:49;;;;;;;3.95;1.75;;;34.30;54.10;;;;;;6176002;23;20008;-77
2022/05/12 13:42:40;;;;;;;4.65;1.50;;;34.40;53.60;;;;;;6221196;23;20286;-78
2022/05/12 13:45:25;;;;;;;3.80;1.65;;;34.50;53.60;;;;;;6194700;23;20004;-79
2022/05/12 13:47:52;;;;;;;5.53;1.80;;;33.80;53.90;;;;;;6223982;23;20001;-76
2022/05/12 13:50:20;;;;;;;6.18;1.58;;;33.20;54.90;;;;;;6222738;23;20020;-78
2022/05/12 13:52:52;;;;;;;6.17;2.00;;;32.10;56.10;;;;;;6197644;23;20019;-76
2022/05/12 13:55:27;;;;;;;6.15;2.17;;;31.40;57.20;;;;;;6222802;23;20000;-80
2022/05/12 13:57:56;;;;;;;4.22;1.70;;;30.70;58.60;;;;;;6223265;23;20128;-77
2022/05/12 14:00:34;;;;;;;4.18;1.80;;;30.60;58.60;;;;;;6195450;23;21045;-78
2022/05/12 14:03:15;;;;;;;;;;;30.10;59.40;;;;;;6224032;23;20024;-76
2022/05/12 14:05:41;;;;;;;4.30;1.77;;;29.90;59.70;;;;;;6196488;23;20145;-77
2022/05/12 14:08:31;;;;;;;3.38;2.15;;;29.90;59.60;;;;;;6196925;23;20043;-76
2022/05/12 14:11:04;;;;;;;5.47;1.98;;;29.90;59.90;;;;;;6196543;23;20019;-77
2022/05/12 14:19:41;;;;;;;7.85;1.67;;;31.10;59.10;;;;;;6222287;23;20028;-78
2022/05/12 14:22:12;;;;;;;5.38;1.63;;;31.10;58.40;;;;;;6222979;23;20313;-76
2022/05/12 14:24:42;;;;;;;5.40;1.70;;;30.90;58.60;;;;;;6222633;23;20229;-77
2022/05/12 14:27:10;;;;;;;2.95;1.40;;;30.90;59.00;;;;;;6196760;23;20055;-78
2022/05/12 14:29:37;;;;;;;4.93;1.73;;;31.10;58.50;;;;;;6196668;23;20001;-78
2022/05/12 14:32:04;;;;;;;4.35;1.58;;;30.60;58.70;;;;;;6222385;23;20012;-78
2022/05/12 14:34:31;;;;;;;5.68;2.10;;;30.40;59.60;;;;;;6222937;23;20043;-78
2022/05/12 14:37:00;;;;;;;5.20;1.67;;;30.00;60.60;;;;;;6171960;23;20015;-78
2022/05/12 14:39:34;;;;;;;3.28;1.90;;;30.10;60.30;;;;;;6222500;23;20055;-78
2022/05/12 14:42:00;;;;;;;5.03;1.80;;;29.90;60.60;;;;;;6172288;23;20282;-77
2022/05/12 14:44:27;;;;;;;4.63;1.98;;;29.60;60.80;;;;;;6222816;23;19995;-78
2022/05/12 14:47:21;;;;;;;4.32;1.65;;;29.50;61.00;;;;;;6222663;23;20231;-78
2022/05/12 14:49:48;;;;;;;6.25;1.70;;;29.30;61.30;;;;;;6219683;23;20039;-78
2022/05/12 14:52:18;;;;;;;7.28;1.80;;;29.20;61.90;;;;;;6222540;23;20294;-77
2022/05/12 14:54:46;;;;;;;5.78;1.92;;;29.20;62.00;;;;;;6223170;23;20210;-78
2022/05/12 14:57:12;;;;;;;4.03;1.80;;;29.00;62.00;;;;;;6194827;23;20357;-78
2022/05/12 14:59:38;;;;;;;4.47;2.17;;;29.20;61.80;;;;;;6222774;23;20180;-79
2022/05/12 15:02:30;;;;;;;3.05;1.98;;;29.10;62.20;;;;;;6195203;23;20013;-77
2022/05/12 15:04:57;;;;;;;4.00;2.13;;;29.10;62.10;;;;;;6185189;23;20516;-77
2022/05/12 15:07:23;;;;;;;4.05;1.92;;;29.20;62.10;;;;;;6195377;23;20011;-78
2022/05/12 15:09:49;;;;;;;4.70;1.73;;;29.20;62.20;;;;;;6196238;23;20009;-77
2022/05/12 15:12:15;;;;;;;3.88;1.75;;;29.30;61.80;;;;;;6195072;23;20004;-77
2022/05/12 15:14:43;;;;;;;4.40;2.03;;;29.10;62.00;;;;;;6222429;23;20095;-80
2022/05/12 15:17:11;;;;;;;10.30;2.73;;;28.90;62.90;;;;;;6222328;23;20004;-80
2022/05/12 15:19:37;;;;;;;3.88;2.00;;;28.60;63.30;;;;;;6170502;23;20015;-80
2022/05/12 15:22:03;;;;;;;3.00;1.80;;;28.40;63.70;;;;;;6195748;23;20179;-80
2022/05/12 15:24:33;;;;;;;3.15;1.60;;;28.30;63.80;;;;;;6170957;23;19988;-79
2022/05/12 15:27:03;;;;;;;4.13;1.83;;;28.10;63.70;;;;;;6223002;23;20122;-78
2022/05/12 15:29:54;;;;;;;4.65;2.33;;;27.80;64.50;;;;;;6195522;23;20040;-78
2022/05/12 15:32:32;;;;;;;3.55;1.73;;;27.30;65.70;;;;;;6153741;23;20040;-78
2022/05/12 15:35:25;;;;;;;4.95;2.47;;;27.10;66.20;;;;;;6171117;23;20072;-77
2022/05/12 15:41:04;;;;;;;5.15;2.13;;;26.50;67.40;;;;;;6195919;23;20028;-79
2022/05/12 15:44:02;;;;;;;5.85;2.10;;;26.20;68.10;;;;;;6170197;23;20005;-80
2022/05/12 15:47:29;;;;;;;7.82;2.42;;;26.10;69.00;;;;;;6165495;23;20005;-79
2022/05/12 15:50:46;;;;;;;6.57;1.90;;;25.90;68.90;;;;;;6052079;23;20334;-79
2022/05/12 15:53:25;;;;;;;4.60;2.15;;;25.70;69.50;;;;;;6018923;23;20008;-80
2022/05/12 15:55:51;;;;;;;7.15;2.50;;;25.70;69.90;;;;;;6020632;23;20179;-80
2022/05/12 15:58:17;;;;;;;4.50;2.28;;;25.70;69.80;;;;;;6048648;23;20001;-78
2022/05/12 16:00:45;;;;;;;4.68;1.85;;;25.70;69.80;;;;;;6077444;23;20015;-79
2022/05/12 16:03:12;;;;;;;5.55;1.98;;;25.50;70.00;;;;;;6073652;23;20046;-78
2022/05/12 16:05:39;;;;;;;7.63;2.53;;;25.30;70.80;;;;;;6025362;23;20252;-78
2022/05/12 16:08:06;;;;;;;4.55;2.38;;;25.10;71.60;;;;;;6020400;23;20014;-78
2022/05/12 16:10:32;;;;;;;4.68;2.50;;;24.90;72.20;;;;;;6022302;23;20074;-79
2022/05/12 16:17:35;;;;;;;;;;;;;;;;;;;;;
2022/05/12 16:21:00;;;;;;;;;;;;;;;;;;;;;
2022/05/12 16:24:01;;;;;;;5.43;2.70;;;24.20;75.00;;;;;;6049001;23;20061;-77
2022/05/12 16:26:28;;;;;;;4.53;2.58;;;24.10;75.30;;;;;;6072423;23;20006;-79
2022/05/12 16:28:54;;;;;;;4.40;2.25;;;23.80;76.30;;;;;;6134811;23;20018;-80
2022/05/12 16:31:21;;;;;;;5.82;2.47;;;23.60;77.10;;;;;;6109817;23;20021;-80
2022/05/12 16:33:49;;;;;;;8.35;3.63;;;23.20;79.60;;;;;;6134870;23;20005;-80
2022/05/12 16:36:17;;;;;;;7.05;3.70;;;22.00;93.90;;;;;;6109885;23;20012;-79
2022/05/12 16:38:43;;;;;;;8.10;4.57;;;19.70;99.90;;;;;;6086890;23;20010;-80
2022/05/12 16:41:10;;;;;;;9.10;5.00;;;18.60;99.90;;;;;;6132804;23;20025;-80
2022/05/12 16:43:37;;;;;;;10.60;4.78;;;17.90;99.90;;;;;;6115566;23;20032;-78
2022/05/12 16:46:04;;;;;;;12.25;4.82;;;17.10;99.90;;;;;;6140325;23;20246;-77
2022/05/12 16:48:30;;;;;;;8.90;4.70;;;16.50;99.90;;;;;;6115258;23;20321;-77
2022/05/12 16:50:57;;;;;;;10.60;4.82;;;16.20;99.90;;;;;;6142180;23;20009;-77
2022/05/12 16:53:25;;;;;;;11.23;5.70;;;16.20;99.90;;;;;;6117165;23;20005;-76
2022/05/12 16:55:52;;;;;;;14.55;5.97;;;16.20;99.90;;;;;;6164650;23;19989;-78
2022/05/12 16:58:19;;;;;;;8.57;6.20;;;16.10;99.90;;;;;;6114843;23;20005;-78
2022/05/12 17:00:46;;;;;;;13.50;6.70;;;16.10;99.90;;;;;;6138892;23;20093;-79
2022/05/12 17:06:57;;;;;;;11.30;7.20;;;16.30;99.90;;;;;;6195627;23;20223;-78
2022/05/12 17:09:46;;;;;;;14.43;8.43;;;16.40;99.90;;;;;;6194916;23;20013;-79
2022/05/12 17:12:13;;;;;;;12.48;6.82;;;16.60;99.90;;;;;;6169285;23;20068;-78
2022/05/12 17:14:39;;;;;;;11.30;7.20;;;16.60;99.90;;;;;;6144188;23;20011;-78
2022/05/12 17:17:05;;;;;;;11.02;6.63;;;16.70;99.90;;;;;;6143141;23;20017;-78
2022/05/12 17:19:31;;;;;;;12.60;6.43;;;16.70;99.90;;;;;;6194598;23;20039;-78
2022/05/12 17:21:57;;;;;;;11.18;6.75;;;16.70;99.90;;;;;;6170729;23;20234;-78
2022/05/12 17:24:30;;;;;;;11.70;6.57;;;16.80;99.90;;;;;;6197455;23;20012;-78
2022/05/12 17:27:27;;;;;;;11.60;7.47;;;16.80;99.90;;;;;;6142662;23;20239;-78
2022/05/12 17:29:53;;;;;;;8.85;6.50;;;16.90;99.90;;;;;;6167252;23;20005;-78
2022/05/12 17:32:20;;;;;;;10.38;5.88;;;17.00;99.90;;;;;;6189737;23;20059;-78
2022/05/12 17:34:45;;;;;;;12.45;6.82;;;17.10;99.90;;;;;;6145307;23;20005;-77
2022/05/12 17:37:12;;;;;;;9.85;6.63;;;17.20;99.90;;;;;;6169772;23;20032;-79
2022/05/12 17:39:39;;;;;;;8.63;6.43;;;17.30;99.90;;;;;;6195652;23;20001;-78
2022/05/12 17:42:09;;;;;;;11.40;7.07;;;17.20;99.90;;;;;;6195884;23;20056;-78
2022/05/12 17:44:37;;;;;;;13.63;7.22;;;17.20;99.90;;;;;;6169811;23;20176;-77
2022/05/12 17:47:07;;;;;;;9.07;6.38;;;17.10;99.90;;;;;;6195428;23;20368;-79
2022/05/12 17:49:34;;;;;;;8.80;6.68;;;17.20;99.90;;;;;;6195764;23;20027;-78
2022/05/12 17:52:11;;;;;;;10.30;7.07;;;17.20;99.90;;;;;;6169823;23;20005;-79
2022/05/12 17:54:38;;;;;;;12.05;7.28;;;17.40;99.90;;;;;;6196273;23;20291;-78
2022/05/12 17:57:09;;;;;;;11.38;7.40;;;17.40;99.90;;;;;;6170532;23;20001;-79
2022/05/12 17:59:36;;;;;;;11.30;8.13;;;17.50;99.90;;;;;;6171317;23;20055;-78
2022/05/12 18:02:02;;;;;;;11.77;8.00;;;17.60;99.90;;;;;;6144950;23;20009;-79
2022/05/12 18:04:29;;;;;;;11.27;8.00;;;17.70;99.90;;;;;;6170909;23;20323;-78
2022/05/12 18:06:55;;;;;;;13.82;9.20;;;17.80;99.90;;;;;;6145535;23;20067;-79
2022/05/12 18:09:21;;;;;;;11.35;8.25;;;17.80;99.90;;;;;;6195902;23;20036;-78
2022/05/12 18:11:47;;;;;;;13.43;8.88;;;17.80;99.90;;;;;;6195840;23;20096;-80
2022/05/12 18:14:16;;;;;;;12.52;8.75;;;17.90;99.90;;;;;;6169860;23;20195;-79
2022/05/12 18:16:43;;;;;;;13.50;9.02;;;17.80;99.90;;;;;;6169811;23;20075;-79
2022/05/12 18:19:09;;;;;;;12.93;8.88;;;17.70;99.90;;;;;;6171243;23;20016;-80
2022/05/12 18:21:34;;;;;;;12.68;7.80;;;17.50;99.90;;;;;;6196670;23;20001;-80
2022/05/12 18:24:01;;;;;;;13.32;7.45;;;17.40;99.90;;;;;;6197120;23;20045;-80
2022/05/12 18:26:28;;;;;;;12.10;7.70;;;17.30;99.90;;;;;;6196783;23;20001;-78
2022/05/12 18:28:57;;;;;;;13.88;7.60;;;17.30;99.90;;;;;;6196127;23;20053;-79
2022/05/12 18:31:22;;;;;;;;;;;17.30;99.90;;;;;;6196795;23;20049;-78
2022/05/12 18:33:48;;;;;;;13.95;8.30;;;17.50;99.90;;;;;;6173505;23;20204;-78
2022/05/12 18:36:14;;;;;;;12.05;8.18;;;17.50;99.90;;;;;;6200037;23;20008;-79
2022/05/12 18:39:03;;;;;;;9.77;8.18;;;17.50;99.90;;;;;;6204029;23;20008;-78
2022/05/12 18:41:28;;;;;;;12.27;8.60;;;17.50;99.90;;;;;;6226685;23;20000;-78
2022/05/12 18:43:55;;;;;;;15.25;8.93;;;17.40;99.90;;;;;;6200144;23;19985;-79
2022/05/12 18:46:23;;;;;;;12.00;8.25;;;17.30;99.90;;;;;;6225290;23;20021;-80
2022/05/12 18:48:49;;;;;;;14.82;9.18;;;17.40;99.90;;;;;;6225669;23;20000;-79
2022/05/12 18:51:18;;;;;;;12.93;8.48;;;17.40;99.90;;;;;;6174609;23;20016;-77
2022/05/12 18:54:28;;;;;;;14.32;8.63;;;17.20;99.90;;;;;;6173785;23;20009;-80
2022/05/12 18:56:54;;;;;;;17.23;8.95;;;17.20;99.90;;;;;;6225721;23;20039;-79
2022/05/12 18:59:21;;;;;;;13.32;8.75;;;17.20;99.90;;;;;;6173905;23;19996;-78
2022/05/12 19:01:54;;;;;;;17.58;9.90;;;17.20;99.90;;;;;;6225174;23;20222;-78
2022/05/12 19:04:27;;;;;;;13.60;9.35;;;17.20;99.90;;;;;;6174909;23;20032;-79
2022/05/12 19:07:28;;;;;;;15.02;9.27;;;17.30;99.90;;;;;;6199462;23;20059;-78
2022/05/12 19:09:54;;;;;;;12.63;9.18;;;17.30;99.90;;;;;;6199883;23;20008;-78
2022/05/12 19:12:29;;;;;;;15.10;9.13;;;17.20;99.90;;;;;;6144013;23;20039;-77
2022/05/12 19:15:01;;;;;;;15.40;9.38;;;17.20;99.90;;;;;;6169103;23;20020;-79
2022/05/12 19:17:31;;;;;;;14.55;9.68;;;17.10;99.90;;;;;;6192999;23;20031;-80
2022/05/12 19:19:58;;;;;;;14.15;9.23;;;17.10;99.90;;;;;;6169485;23;20027;-79
2022/05/12 19:22:27;;;;;;;17.17;9.98;;;17.20;99.90;;;;;;6195028;23;20305;-79
2022/05/12 19:25:00;;;;;;;14.02;9.43;;;17.10;99.90;;;;;;6169547;23;20009;-78
2022/05/12 19:27:58;;;;;;;15.68;9.85;;;17.10;99.90;;;;;;6193751;23;20008;-78
2022/05/12 19:30:33;;;;;;;16.15;10.07;;;17.10;99.90;;;;;;6193896;23;20016;-78
2022/05/12 19:36:09;;;;;;;13.73;8.52;;;17.20;99.90;;;;;;6194024;23;20012;-78
2022/05/12 19:38:38;;;;;;;16.63;10.55;;;17.20;99.90;;;;;;6193702;23;20013;-79
2022/05/12 19:41:05;;;;;;;17.58;10.27;;;17.30;99.90;;;;;;6194657;23;20092;-79
2022/05/12 19:43:31;;;;;;;14.68;10.35;;;17.30;99.90;;;;;;6211645;23;20005;-79
2022/05/12 19:46:06;;;;;;;14.73;9.45;;;17.30;99.90;;;;;;6193874;23;20069;-79
2022/05/12 19:48:41;;;;;;;12.65;9.23;;;17.30;99.90;;;;;;6193375;23;20152;-80
2022/05/12 19:51:07;;;;;;;12.60;9.07;;;17.30;99.90;;;;;;6110151;23;20109;-80